Time;durP1;ratioP1;P1;durP2;ratioP2;P2;SDS_P1;SDS_P2;PMS_P1;PMS_P2;Temp;Humidity;BMP_temperature;BMP_pressure;BME280_temperature;BME280_humidity;BME280_pressure;Samples;Min_cycle;Max_cycle;Signal;HPM_P1;HPM_P2
2022/03/21 00:00:27;;;;;;;13.83;8.20;;;;;;;3.29;37.66;98824.81;6241570;22;20226;-80
2022/03/21 00:02:57;;;;;;;10.63;7.13;;;;;;;3.14;38.08;98797.34;6269671;22;20216;-83
2022/03/21 00:05:29;;;;;;;13.37;7.23;;;;;;;3.09;37.62;98788.72;6242361;22;20164;-83
2022/03/21 00:07:57;;;;;;;16.30;8.63;;;;;;;2.71;38.03;98738.81;6243886;22;20169;-86
2022/03/21 00:10:25;;;;;;;11.70;7.73;;;;;;;3.23;38.08;98812.81;6246283;22;20157;-79
2022/03/21 00:12:52;;;;;;;15.40;7.80;;;;;;;2.95;37.64;98759.56;6273760;22;20654;-83
2022/03/21 00:15:20;;;;;;;13.83;7.50;;;;;;;3.16;37.30;98785.41;6218936;22;20197;-79
2022/03/21 00:17:47;;;;;;;14.63;7.57;;;;;;;3.12;37.85;98782.78;6243715;22;20180;-80
2022/03/21 00:20:15;;;;;;;15.30;8.23;;;;;;;3.01;37.75;98739.16;6243571;22;20573;-80
2022/03/21 00:22:43;;;;;;;12.00;8.30;;;;;;;3.08;37.77;98761.44;6268864;22;20191;-81
2022/03/21 00:25:10;;;;;;;11.50;7.20;;;;;;;2.96;37.42;98740.84;6270322;22;20160;-85
2022/03/21 00:27:38;;;;;;;12.87;7.40;;;;;;;3.12;37.61;98757.19;6269629;22;20157;-78
2022/03/21 00:30:09;;;;;;;10.50;7.57;;;;;;;3.28;37.43;98759.94;6243556;22;20564;-79
2022/03/21 00:32:37;;;;;;;11.90;7.77;;;;;;;2.93;37.54;98719.44;6244292;22;20157;-82
2022/03/21 00:35:12;;;;;;;12.80;7.47;;;;;;;3.36;38.14;98789.91;6243557;22;20165;-82
2022/03/21 00:37:39;;;;;;;13.37;7.30;;;;;;;3.09;37.19;98739.28;6271849;22;20165;-80
2022/03/21 00:40:07;;;;;;;12.90;8.07;;;;;;;3.08;37.47;98750.34;6217809;22;20173;-82
2022/03/21 00:42:37;;;;;;;13.40;8.33;;;;;;;3.18;37.68;98767.50;6244012;22;20164;-83
2022/03/21 00:45:09;;;;;;;13.73;8.33;;;;;;;3.16;37.43;98764.94;6243157;22;20196;-80
2022/03/21 00:47:36;;;;;;;11.80;7.73;;;;;;;3.05;37.58;98745.19;6268724;22;20164;-83
2022/03/21 00:50:06;;;;;;;11.60;7.30;;;;;;;3.32;38.06;98780.47;6242474;22;20243;-79
2022/03/21 00:52:47;;;;;;;14.10;8.43;;;;;;;3.22;37.37;98764.13;6240951;22;20169;-85
2022/03/21 00:55:16;;;;;;;13.67;8.63;;;;;;;3.38;38.12;98795.91;6242277;22;20552;-80
2022/03/21 00:57:44;;;;;;;12.93;8.93;;;;;;;3.28;37.39;98800.03;6268762;22;20165;-80
2022/03/21 01:00:15;;;;;;;16.30;9.63;;;;;;;2.84;38.56;98730.47;6216777;22;20176;-82
2022/03/21 01:02:42;;;;;;;15.10;8.30;;;;;;;2.98;38.70;98754.50;6216787;22;20207;-80
2022/03/21 01:05:10;;;;;;;14.27;8.43;;;;;;;3.18;38.74;98791.41;6268664;22;20192;-84
2022/03/21 01:07:39;;;;;;;15.87;8.57;;;;;;;3.07;37.94;98780.19;6243951;22;20181;-79
2022/03/21 01:10:08;;;;;;;15.80;8.07;;;;;;;3.12;38.77;98799.03;6222023;22;20235;-82
2022/03/21 01:12:37;;;;;;;16.03;8.97;;;;;;;2.99;38.15;98771.56;6275075;22;20243;-82
2022/03/21 01:15:07;;;;;;;15.70;8.17;;;;;;;3.15;38.70;98793.09;6247052;22;20171;-84
2022/03/21 01:17:35;;;;;;;14.60;9.23;;;;;;;3.07;38.15;98777.63;6272116;22;20161;-79
2022/03/21 01:20:04;;;;;;;13.40;8.03;;;;;;;3.17;38.23;98796.53;6270979;22;20203;-80
2022/03/21 01:22:31;;;;;;;13.53;8.43;;;;;;;2.99;37.87;98756.19;6270736;22;20167;-82
2022/03/21 01:24:58;;;;;;;14.93;8.97;;;;;;;3.25;37.45;98787.22;6271153;22;20203;-80
2022/03/21 01:27:25;;;;;;;14.43;9.03;;;;;;;3.17;37.80;98768.38;6242964;22;20163;-81
2022/03/21 01:29:53;;;;;;;17.20;9.20;;;;;;;3.23;38.33;98771.00;6271634;22;20192;-81
2022/03/21 01:32:20;;;;;;;16.37;9.47;;;;;;;3.05;37.80;98746.03;6270247;22;20247;-78
2022/03/21 01:34:47;;;;;;;15.47;9.27;;;;;;;3.19;37.88;98787.16;6243392;22;20647;-85
2022/03/21 01:37:14;;;;;;;13.20;8.53;;;;;;;2.82;38.22;98744.94;6270823;22;20648;-78
2022/03/21 01:39:41;;;;;;;16.03;9.03;;;;;;;3.07;38.45;98769.09;6243404;22;20644;-83
2022/03/21 01:42:09;;;;;;;15.40;9.43;;;;;;;2.68;38.18;98725.97;6271209;22;20482;-80
2022/03/21 01:44:36;;;;;;;18.87;9.33;;;;;;;2.51;37.81;98699.38;6242640;22;20198;-85
2022/03/21 01:47:03;;;;;;;12.40;9.37;;;;;;;2.72;38.82;98750.75;6219116;22;20171;-82
2022/03/21 01:49:31;;;;;;;15.90;9.13;;;;;;;2.61;38.26;98744.66;6217683;22;20520;-87
2022/03/21 01:51:58;;;;;;;14.03;9.10;;;;;;;2.52;39.32;98726.63;6269067;22;20162;-85
2022/03/21 01:57:11;;;;;;;14.20;9.00;;;;;;;2.48;38.99;98707.00;6242921;22;20180;-84
2022/03/21 01:59:45;;;;;;;13.83;8.50;;;;;;;2.48;39.13;98727.44;6220645;22;20196;-82
2022/03/21 02:02:12;;;;;;;16.50;9.13;;;;;;;2.74;38.05;98761.88;6271800;22;20188;-84
2022/03/21 02:04:39;;;;;;;12.97;9.23;;;;;;;2.71;39.30;98766.97;6270837;22;20192;-79
2022/03/21 02:07:07;;;;;;;17.77;10.50;;;;;;;2.53;38.74;98728.38;6217851;22;20179;-79
2022/03/21 02:09:35;;;;;;;14.50;9.43;;;;;;;2.33;38.91;98694.88;6270389;22;20175;-87
2022/03/21 02:12:04;;;;;;;14.13;9.13;;;;;;;2.76;38.93;98772.97;6218413;22;20574;-82
2022/03/21 02:14:35;;;;;;;16.53;9.70;;;;;;;2.70;39.11;98749.88;6218554;22;20191;-79
2022/03/21 02:17:02;;;;;;;17.00;9.33;;;;;;;2.19;39.22;98675.94;6271612;22;20164;-82
2022/03/21 02:19:31;;;;;;;17.27;8.77;;;;;;;2.59;39.04;98736.13;6271281;22;20251;-78
2022/03/21 02:22:16;;;;;;;17.33;9.67;;;;;;;2.81;38.17;98761.09;6245150;22;20642;-85
2022/03/21 02:24:43;;;;;;;15.43;10.10;;;;;;;2.73;39.54;98770.38;6244127;22;20203;-78
2022/03/21 02:27:12;;;;;;;17.00;10.63;;;;;;;2.07;38.95;98675.78;6244874;22;20182;-79
2022/03/21 02:29:41;;;;;;;15.77;9.83;;;;;;;2.42;38.46;98737.59;6276111;22;20176;-78
2022/03/21 02:32:09;;;;;;;15.27;9.50;;;;;;;2.44;38.99;98730.78;6248287;22;20623;-80
2022/03/21 02:34:38;;;;;;;16.03;9.40;;;;;;;2.68;39.47;98779.69;6249010;22;20160;-81
2022/03/21 02:37:12;;;;;;;20.33;10.70;;;;;;;2.58;39.67;98775.28;6276052;22;20239;-79
2022/03/21 02:39:40;;;;;;;16.90;9.70;;;;;;;2.59;39.61;98771.91;6245139;22;20170;-79
2022/03/21 02:42:07;;;;;;;17.33;9.57;;;;;;;2.20;39.37;98717.69;6272226;22;20161;-81
2022/03/21 02:44:36;;;;;;;17.03;9.80;;;;;;;2.22;39.18;98722.00;6275296;22;20283;-78
2022/03/21 02:47:09;;;;;;;17.33;8.83;;;;;;;2.32;39.92;98751.09;6248950;22;20165;-86
2022/03/21 02:49:36;;;;;;;15.07;9.37;;;;;;;2.26;39.59;98741.66;6244029;22;20169;-84
2022/03/21 02:52:05;;;;;;;14.47;9.47;;;;;;;2.17;40.00;98738.94;6270388;22;20179;-79
2022/03/21 02:54:34;;;;;;;16.80;9.47;;;;;;;1.76;39.93;98672.75;6241948;22;20169;-84
2022/03/21 02:57:01;;;;;;;15.33;8.83;;;;;;;1.93;39.94;98709.63;6269764;22;20197;-85
2022/03/21 02:59:29;;;;;;;16.60;8.93;;;;;;;2.14;40.26;98736.34;6269995;22;20240;-83
2022/03/21 03:01:56;;;;;;;17.43;8.90;;;;;;;2.25;40.54;98762.03;6267517;22;20256;-86
2022/03/21 03:04:26;;;;;;;14.40;8.90;;;;;;;1.90;41.01;98701.91;6270195;22;20645;-79
2022/03/21 03:06:54;;;;;;;18.10;9.67;;;;;;;2.17;40.99;98748.31;6242322;22;20179;-81
2022/03/21 03:09:21;;;;;;;14.20;9.70;;;;;;;2.22;40.48;98746.69;6270395;22;20517;-81
2022/03/21 03:11:48;;;;;;;16.73;9.57;;;;;;;2.38;39.46;98784.41;6242658;22;20171;-81
2022/03/21 03:14:16;;;;;;;14.37;8.90;;;;;;;2.33;40.15;98780.91;6218018;22;20511;-85
2022/03/21 03:16:43;;;;;;;16.37;9.13;;;;;;;2.03;40.27;98726.81;6243926;22;20555;-87
2022/03/21 03:19:10;;;;;;;13.87;8.63;;;;;;;2.14;40.68;98732.94;6242922;22;20222;-86
2022/03/21 03:21:41;;;;;;;14.63;10.13;;;;;;;2.24;39.85;98750.13;6270685;22;20828;-82
2022/03/21 03:24:12;;;;;;;15.83;9.10;;;;;;;2.11;40.83;98720.09;6217084;22;20200;-82
2022/03/21 03:26:39;;;;;;;14.13;8.70;;;;;;;2.40;40.68;98777.59;6270639;22;20609;-84
2022/03/21 03:29:06;;;;;;;16.67;9.40;;;;;;;2.04;39.79;98721.72;6242208;22;20657;-83
2022/03/21 03:31:35;;;;;;;15.57;8.67;;;;;;;2.33;40.09;98776.66;6268508;22;20199;-78
2022/03/21 03:34:03;;;;;;;16.13;9.20;;;;;;;1.99;40.77;98717.38;6242175;22;20168;-82
2022/03/21 03:36:32;;;;;;;14.10;8.60;;;;;;;2.39;40.02;98781.03;6241639;22;20184;-82
2022/03/21 03:38:59;;;;;;;14.40;8.93;;;;;;;2.17;40.65;98744.06;6269625;22;20644;-81
2022/03/21 03:41:27;;;;;;;18.13;9.43;;;;;;;2.33;41.44;98771.53;6269061;22;20662;-78
2022/03/21 03:43:54;;;;;;;12.03;8.10;;;;;;;2.10;41.12;98731.19;6268567;22;20276;-79
2022/03/21 03:46:21;;;;;;;13.23;8.60;;;;;;;2.31;41.06;98768.09;6242694;22;20164;-80
2022/03/21 03:48:49;;;;;;;12.87;8.90;;;;;;;1.96;39.79;98718.19;6269620;22;20175;-85
2022/03/21 03:51:17;;;;;;;15.03;8.73;;;;;;;2.07;40.73;98733.69;6242209;22;20172;-84
2022/03/21 03:53:44;;;;;;;15.33;9.43;;;;;;;1.79;40.91;98685.59;6268954;22;20161;-77
2022/03/21 03:56:11;;;;;;;15.10;8.70;;;;;;;2.16;39.94;98747.47;6269310;22;20619;-83
2022/03/21 03:58:38;;;;;;;17.10;9.67;;;;;;;1.98;40.94;98718.25;6268669;22;20715;-79
2022/03/21 04:01:06;;;;;;;13.60;8.87;;;;;;;2.16;40.58;98751.72;6270033;22;20214;-82
2022/03/21 04:03:46;;;;;;;15.07;9.50;;;;;;;2.31;40.66;98777.47;6268569;22;20171;-84
2022/03/21 04:06:21;;;;;;;15.20;8.33;;;;;;;2.23;40.92;98768.81;6245969;22;20161;-81
2022/03/21 04:08:50;;;;;;;20.13;9.70;;;;;;;2.24;40.46;98775.69;6269380;22;20704;-81
2022/03/21 04:11:18;;;;;;;15.43;9.47;;;;;;;2.03;40.44;98737.03;6269308;22;20550;-78
2022/03/21 04:13:46;;;;;;;14.30;9.87;;;;;;;2.22;41.07;98746.69;6269300;22;20554;-85
2022/03/21 04:16:14;;;;;;;15.00;9.57;;;;;;;2.30;41.43;98765.53;6269093;22;20240;-84
2022/03/21 04:18:42;;;;;;;20.13;10.30;;;;;;;2.09;42.02;98755.88;6243275;22;20681;-82
2022/03/21 04:21:27;;;;;;;16.97;9.70;;;;;;;1.71;41.61;98690.56;6242814;22;20627;-81
2022/03/21 04:23:56;;;;;;;14.00;8.73;;;;;;;2.23;41.60;98768.81;6222732;22;20174;-87
2022/03/21 04:26:25;;;;;;;13.43;9.33;;;;;;;2.23;41.57;98777.38;6274099;22;20171;-89
2022/03/21 04:28:55;;;;;;;15.90;9.37;;;;;;;2.15;41.44;98761.06;6271413;22;20160;-84
2022/03/21 04:31:22;;;;;;;16.63;9.73;;;;;;;2.15;41.03;98755.09;6276093;22;20643;-89
2022/03/21 04:33:51;;;;;;;17.03;9.93;;;;;;;2.36;40.94;98775.84;6272185;22;20247;-82
2022/03/21 04:36:19;;;;;;;17.60;9.77;;;;;;;2.08;41.79;98723.47;6221652;22;20180;-77
2022/03/21 04:38:46;;;;;;;17.87;10.43;;;;;;;1.96;41.39;98725.03;6270973;22;20256;-78
2022/03/21 04:41:13;;;;;;;18.07;10.30;;;;;;;1.95;42.44;98730.94;6269460;22;20157;-87
2022/03/21 04:43:41;;;;;;;19.00;11.10;;;;;;;2.32;41.54;98771.53;6275186;22;20168;-82
2022/03/21 04:46:09;;;;;;;17.03;11.57;;;;;;;2.34;42.21;98777.53;6278654;22;20252;-76
2022/03/21 04:48:36;;;;;;;16.80;11.07;;;;;;;2.01;41.64;98701.25;6274452;22;20655;-88
2022/03/21 04:51:03;;;;;;;17.70;10.13;;;;;;;2.47;41.10;98787.09;6196627;22;20172;-82
2022/03/21 04:53:30;;;;;;;20.40;11.40;;;;;;;2.60;41.18;98773.63;6272050;22;20597;-82
2022/03/21 04:55:57;;;;;;;18.13;11.77;;;;;;;2.45;41.21;98720.59;6272995;22;20569;-80
2022/03/21 04:58:24;;;;;;;18.43;10.47;;;;;;;2.73;41.10;98751.63;6245417;22;20168;-79
2022/03/21 05:00:52;;;;;;;15.73;11.03;;;;;;;2.64;41.61;98724.22;6219603;22;20183;-82
2022/03/21 05:03:19;;;;;;;18.80;10.00;;;;;;;2.75;40.29;98704.78;6270890;22;20776;-84
2022/03/21 05:05:47;;;;;;;18.90;11.27;;;;;;;2.92;40.30;98712.63;6243862;22;20200;-82
2022/03/21 05:08:16;;;;;;;26.80;12.17;;;;;;;3.11;40.25;98724.78;6222377;22;20569;-88
2022/03/21 05:10:47;;;;;;;27.20;14.33;;;;;;;2.79;41.21;98701.41;6246383;22;20251;-85
2022/03/21 05:13:21;;;;;;;28.33;15.63;;;;;;;3.25;41.18;98754.81;6249491;22;20173;-84
2022/03/21 05:15:49;;;;;;;28.73;19.00;;;;;;;2.74;41.12;98669.78;6245381;22;20162;-80
2022/03/21 05:18:17;;;;;;;26.77;14.47;;;;;;;3.35;40.58;98781.34;6271369;22;20242;-84
2022/03/21 05:20:44;;;;;;;24.77;14.70;;;;;;;2.80;41.38;98753.44;6271618;22;20279;-85
2022/03/21 05:31:32;;;;;;;27.17;15.73;;;;;;;3.59;39.91;98753.41;6245719;22;20711;-85
2022/03/21 05:36:45;;;;;;;25.53;15.20;;;;;;;4.15;39.02;98779.50;6244304;22;20177;-84
2022/03/21 05:39:13;;;;;;;24.13;13.50;;;;;;;4.22;38.39;98753.06;6218738;22;20251;-86
2022/03/21 05:41:40;;;;;;;24.70;12.70;;;;;;;4.50;38.94;98756.66;6243683;22;20220;-86
2022/03/21 05:44:09;;;;;;;23.10;12.47;;;;;;;4.63;37.25;98767.00;6217782;22;20213;-84
2022/03/21 05:46:36;;;;;;;19.30;11.97;;;;;;;4.39;37.27;98733.50;6242905;22;20221;-89
2022/03/21 05:49:04;;;;;;;22.23;11.13;;;;;;;4.49;37.29;98747.25;6218566;22;20173;-84
2022/03/21 05:51:34;;;;;;;26.43;16.90;;;;;;;4.80;38.40;98787.63;6243280;22;20253;-81
2022/03/21 05:54:12;;;;;;;32.20;18.47;;;;;;;4.08;39.82;98741.88;6244250;22;20171;-84
2022/03/21 05:56:41;;;;;;;32.30;19.07;;;;;;;4.41;39.89;98752.31;6244327;22;20657;-80
2022/03/21 06:01:54;;;;;;;29.93;17.17;;;;;;;4.62;39.24;98761.84;6246570;22;20167;-85
2022/03/21 06:04:23;;;;;;;21.10;13.70;;;;;;;4.36;37.94;98725.81;6270000;22;20537;-82
2022/03/21 06:06:51;;;;;;;21.47;13.87;;;;;;;4.68;37.85;98733.63;6218848;22;20172;-84
2022/03/21 06:09:19;;;;;;;26.27;16.27;;;;;;;3.33;39.36;98683.19;6243780;22;20208;-80
2022/03/21 06:11:48;;;;;;;35.33;17.00;;;;;;;3.97;39.27;98746.91;6220380;22;20166;-84
2022/03/21 06:14:20;;;;;;;26.73;15.93;;;;;;;4.45;39.24;98789.97;6273413;22;20577;-81
2022/03/21 06:16:49;;;;;;;30.00;15.63;;;;;;;4.75;38.58;98774.75;6270805;22;20190;-86
2022/03/21 06:19:19;;;;;;;29.53;18.17;;;;;;;4.14;39.00;98711.16;6270973;22;20210;-81
2022/03/21 06:21:52;;;;;;;35.30;17.73;;;;;;;4.77;39.62;98772.19;6257641;22;20173;-87
2022/03/21 06:24:23;;;;;;;37.27;16.93;;;;;;;4.79;38.47;98738.00;6249214;22;20174;-86
2022/03/21 06:26:51;;;;;;;25.13;13.67;;;;;;;5.45;38.12;98786.13;6225312;22;20179;-82
2022/03/21 06:29:21;;;;;;;28.70;16.07;;;;;;;5.37;36.46;98720.19;6273427;22;20167;-85
2022/03/21 06:31:49;;;;;;;18.93;12.90;;;;;;;5.58;36.04;98779.31;6271735;22;20524;-86
2022/03/21 06:34:16;;;;;;;22.47;13.37;;;;;;;5.48;35.91;98759.59;6243707;22;20187;-85
2022/03/21 06:36:44;;;;;;;22.67;12.07;;;;;;;5.63;36.64;98744.19;6245354;22;20191;-83
2022/03/21 06:39:11;;;;;;;18.47;11.93;;;;;;;5.95;35.69;98785.38;6244202;22;20186;-85
2022/03/21 06:41:42;;;;;;;16.67;10.97;;;;;;;6.09;35.78;98761.38;6244977;22;20618;-87
2022/03/21 06:44:11;;;;;;;16.10;9.23;;;;;;;5.90;34.00;98756.22;6219236;22;20181;-84
2022/03/21 06:46:38;;;;;;;18.10;10.23;;;;;;;5.46;35.08;98721.03;6219394;22;20551;-84
2022/03/21 06:49:06;;;;;;;13.93;7.93;;;;;;;5.79;34.20;98771.59;6272480;22;20168;-85
2022/03/21 06:51:33;;;;;;;13.67;9.13;;;;;;;5.42;34.86;98783.53;6248513;22;20182;-83
2022/03/21 06:54:03;;;;;;;13.60;9.80;;;;;;;5.19;35.09;98725.28;6223002;22;20738;-82
2022/03/21 06:56:30;;;;;;;10.73;7.37;;;;;;;5.14;34.49;98752.66;6193126;22;20635;-89
2022/03/21 06:58:58;;;;;;;9.07;5.83;;;;;;;4.73;34.62;98698.63;6218821;22;20167;-82
2022/03/21 07:01:26;;;;;;;12.77;7.37;;;;;;;4.93;33.51;98738.91;6217562;22;20256;-83
2022/03/21 07:03:54;;;;;;;9.20;5.67;;;;;;;5.01;33.30;98745.78;6218323;22;20170;-87
2022/03/21 07:06:22;;;;;;;8.40;4.67;;;;;;;4.66;33.73;98786.66;6222400;22;20201;-87
2022/03/21 07:08:51;;;;;;;9.87;5.40;;;;;;;4.35;33.85;98695.88;6196486;22;20253;-85
2022/03/21 07:11:21;;;;;;;9.00;5.50;;;;;;;4.77;34.02;98778.19;6248171;22;20577;-83
2022/03/21 07:13:51;;;;;;;8.10;4.47;;;;;;;4.61;33.36;98732.78;6259561;22;20161;-84
2022/03/21 07:16:19;;;;;;;15.67;7.30;;;;;;;5.04;33.75;98784.28;6220124;22;20308;-85
2022/03/21 07:18:50;;;;;;;6.13;4.97;;;;;;;4.99;33.48;98744.91;6243486;22;20599;-87
2022/03/21 07:21:19;;;;;;;12.07;6.97;;;;;;;5.63;33.01;98746.75;6218264;22;20258;-81
2022/03/21 07:23:49;;;;;;;17.97;9.10;;;;;;;5.47;33.07;98697.06;6219792;22;20181;-90
2022/03/21 07:26:19;;;;;;;22.90;12.23;;;;;;;5.31;31.64;98684.22;6197265;22;20207;-86
2022/03/21 07:29:06;;;;;;;14.97;6.70;;;;;;;5.57;32.13;98759.59;6204508;22;20166;-83
2022/03/21 07:31:48;;;;;;;7.47;4.93;;;;;;;4.86;32.63;98726.03;6248172;22;20168;-90
2022/03/21 07:34:24;;;;;;;13.27;6.70;;;;;;;4.92;32.65;98724.31;6272574;22;20504;-89
2022/03/21 07:36:55;;;;;;;6.20;4.93;;;;;;;5.37;32.31;98774.13;6245576;22;20171;-85
2022/03/21 07:39:24;;;;;;;9.23;4.90;;;;;;;5.33;32.63;98754.41;6245851;22;20195;-92
2022/03/21 07:41:59;;;;;;;8.10;5.10;;;;;;;5.49;32.44;98771.56;6220443;22;20175;-88
2022/03/21 07:47:20;;;;;;;9.47;5.30;;;;;;;5.31;32.06;98769.84;6248405;22;20570;-86
2022/03/21 07:49:50;;;;;;;12.47;7.33;;;;;;;5.38;32.50;98742.47;6273999;22;20170;-87
2022/03/21 07:52:29;;;;;;;8.13;4.60;;;;;;;5.47;32.12;98765.56;6253525;22;20220;-85
2022/03/21 07:55:03;;;;;;;5.30;3.53;;;;;;;5.27;31.48;98773.25;6281214;22;20222;-83
2022/03/21 07:58:26;;;;;;;6.10;4.43;;;;;;;5.45;31.79;98775.00;6253668;22;20165;-87
2022/03/21 08:01:00;;;;;;;7.03;4.63;;;;;;;5.36;32.21;98711.59;6261472;22;20470;-82
2022/03/21 08:03:31;;;;;;;8.03;4.57;;;;;;;5.93;31.29;98764.81;6274893;22;20193;-85
2022/03/21 08:06:34;;;;;;;8.67;5.10;;;;;;;5.87;31.01;98741.69;6249663;22;20203;-80
2022/03/21 08:09:02;;;;;;;6.90;4.70;;;;;;;6.06;31.56;98751.06;6243650;22;20611;-82
2022/03/21 08:11:36;;;;;;;8.03;5.00;;;;;;;6.10;30.76;98734.78;6270815;22;20171;-85
2022/03/21 08:14:03;;;;;;;15.03;8.30;;;;;;;6.44;30.59;98744.19;6217261;22;20178;-85
2022/03/21 08:16:31;;;;;;;8.47;5.00;;;;;;;6.31;31.36;98763.06;6269393;22;20164;-84
2022/03/21 08:18:59;;;;;;;7.73;5.30;;;;;;;6.29;31.88;98775.06;6217270;22;20317;-89
2022/03/21 08:21:26;;;;;;;7.77;5.50;;;;;;;5.79;32.43;98769.03;6241923;22;20195;-83
2022/03/21 08:23:53;;;;;;;13.83;8.27;;;;;;;5.65;32.10;98729.63;6192941;22;20560;-85
2022/03/21 08:26:21;;;;;;;9.50;6.40;;;;;;;5.47;32.73;98733.03;6192032;22;20209;-85
2022/03/21 08:28:48;;;;;;;7.03;4.97;;;;;;;5.44;32.26;98719.34;6271577;22;20249;-88
2022/03/21 08:31:16;;;;;;;7.80;5.63;;;;;;;5.74;32.73;98740.78;6244704;22;20174;-83
2022/03/21 08:33:44;;;;;;;6.30;4.50;;;;;;;5.72;31.60;98744.19;6245141;22;20583;-85
2022/03/21 08:36:14;;;;;;;8.03;5.43;;;;;;;6.04;31.80;98778.50;6245108;22;20162;-87
2022/03/21 08:38:44;;;;;;;9.93;5.00;;;;;;;5.65;32.34;98737.31;6219839;22;20914;-87
2022/03/21 08:41:15;;;;;;;8.00;4.97;;;;;;;5.77;31.68;98735.63;6219721;22;20685;-83
2022/03/21 08:43:43;;;;;;;7.17;5.17;;;;;;;5.81;32.12;98749.34;6219855;22;20166;-86
2022/03/21 08:46:10;;;;;;;7.73;5.43;;;;;;;5.63;32.20;98709.06;6272330;22;20737;-87
2022/03/21 08:51:47;;;;;;;7.60;5.13;;;;;;;5.29;33.25;98660.25;6220044;22;20173;-87
2022/03/21 08:54:15;;;;;;;9.23;6.13;;;;;;;5.92;32.97;98727.09;6219767;22;20175;-87
2022/03/21 08:56:43;;;;;;;8.70;5.83;;;;;;;6.40;32.73;98777.63;6245266;22;20198;-85
2022/03/21 08:59:11;;;;;;;9.63;6.10;;;;;;;6.37;32.33;98764.75;6245076;22;20173;-83
2022/03/21 09:01:38;;;;;;;9.63;5.47;;;;;;;6.55;31.79;98732.13;6243817;22;20226;-84
2022/03/21 09:04:05;;;;;;;9.33;6.07;;;;;;;6.46;32.28;98734.75;6244550;22;20247;-82
2022/03/21 09:06:33;;;;;;;8.20;5.87;;;;;;;6.24;32.89;98689.34;6268205;22;20200;-86
2022/03/21 09:09:00;;;;;;;10.93;5.80;;;;;;;6.39;32.46;98738.16;6192483;22;20599;-87
2022/03/21 09:11:28;;;;;;;7.10;5.53;;;;;;;6.05;31.79;98671.38;6242680;22;20252;-83
2022/03/21 09:13:56;;;;;;;13.33;6.13;;;;;;;6.22;32.19;98715.94;6240501;22;20207;-83
2022/03/21 09:16:24;;;;;;;9.10;5.40;;;;;;;6.11;31.99;98723.66;6269953;22;20171;-83
2022/03/21 09:18:51;;;;;;;11.57;5.57;;;;;;;6.69;31.91;98767.28;6269649;22;20250;-88
2022/03/21 09:21:19;;;;;;;10.53;5.37;;;;;;;6.40;32.22;98757.91;6192841;22;20290;-81
2022/03/21 09:23:48;;;;;;;6.90;5.03;;;;;;;6.43;31.23;98731.28;6269673;22;20175;-81
2022/03/21 09:26:15;;;;;;;6.00;5.00;;;;;;;5.96;31.63;98656.81;6269421;22;20204;-87
2022/03/21 09:28:44;;;;;;;12.03;6.43;;;;;;;6.45;31.81;98751.03;6241943;22;20194;-84
2022/03/21 09:31:13;;;;;;;8.50;5.20;;;;;;;6.13;31.77;98691.06;6269991;22;20182;-86
2022/03/21 09:34:00;;;;;;;8.23;5.10;;;;;;;6.48;31.79;98724.44;6221432;22;20174;-85
2022/03/21 09:36:29;;;;;;;8.27;5.30;;;;;;;6.40;31.68;98729.59;6242274;22;20166;-85
2022/03/21 09:39:00;;;;;;;7.23;5.13;;;;;;;6.21;31.52;98699.63;6244555;22;20186;-81
2022/03/21 09:41:32;;;;;;;6.97;5.43;;;;;;;6.20;31.69;98692.75;6218342;22;20178;-85
2022/03/21 09:44:07;;;;;;;14.10;7.53;;;;;;;6.23;31.61;98672.19;6172544;22;20171;-85
2022/03/21 09:46:37;;;;;;;7.80;5.03;;;;;;;6.50;30.90;98733.88;6243667;22;20264;-88
2022/03/21 09:49:10;;;;;;;6.73;4.97;;;;;;;6.79;30.99;98744.06;6243455;22;20259;-85
2022/03/21 09:51:39;;;;;;;6.60;4.37;;;;;;;6.57;31.66;98755.31;6244833;22;20187;-84
2022/03/21 09:54:08;;;;;;;6.60;5.07;;;;;;;6.13;31.44;98705.63;6242731;22;20178;-82
2022/03/21 09:56:38;;;;;;;6.93;5.03;;;;;;;5.76;31.75;98640.53;6194688;22;20296;-81
2022/03/21 09:59:08;;;;;;;6.93;4.40;;;;;;;6.16;30.64;98714.19;6270141;22;20202;-80
2022/03/21 10:01:42;;;;;;;6.40;4.77;;;;;;;5.97;31.77;98689.38;6194012;22;20171;-86
2022/03/21 10:04:11;;;;;;;7.37;4.97;;;;;;;5.95;30.99;98631.97;6243377;22;20176;-88
2022/03/21 10:06:43;;;;;;;5.47;3.80;;;;;;;6.38;31.12;98669.56;6242804;22;20205;-85
2022/03/21 10:09:19;;;;;;;6.87;5.00;;;;;;;7.01;30.88;98711.34;6241073;22;20222;-86
2022/03/21 10:11:52;;;;;;;11.17;5.60;;;;;;;6.69;29.98;98666.88;6242842;22;20175;-81
2022/03/21 10:14:23;;;;;;;7.20;4.80;;;;;;;6.89;30.83;98717.41;6243709;22;20629;-83
2022/03/21 10:17:22;;;;;;;12.07;6.70;;;;;;;6.76;30.83;98712.34;6243413;22;20168;-87
2022/03/21 10:19:52;;;;;;;8.63;5.50;;;;;;;6.72;31.40;98647.13;6215635;23;20207;-87
2022/03/21 10:22:37;;;;;;;9.77;6.00;;;;;;;7.23;30.91;98707.81;6250097;23;20233;-87
2022/03/21 10:25:07;;;;;;;9.13;6.80;;;;;;;7.40;31.44;98700.81;6196941;23;20239;-84
2022/03/21 10:27:39;;;;;;;8.80;5.77;;;;;;;6.89;31.72;98665.91;6188446;23;20284;-86
2022/03/21 10:30:15;;;;;;;9.97;5.87;;;;;;;7.04;31.22;98675.28;6188422;23;20633;-90
2022/03/21 10:32:59;;;;;;;12.07;6.00;;;;;;;7.04;31.28;98631.50;6187769;23;20621;-87
2022/03/21 10:35:29;;;;;;;11.40;6.37;;;;;;;7.13;30.63;98670.09;6240390;23;20665;-83
2022/03/21 10:37:59;;;;;;;7.70;5.53;;;;;;;6.88;31.11;98674.53;6214907;23;20170;-84
2022/03/21 10:40:41;;;;;;;9.97;6.10;;;;;;;6.90;31.31;98693.41;6214463;23;20746;-84
2022/03/21 10:43:13;;;;;;;8.53;7.07;;;;;;;6.85;31.81;98635.91;6189852;23;20172;-89
2022/03/21 10:45:52;;;;;;;10.67;5.80;;;;;;;7.19;30.76;98675.19;6187305;23;20208;-84
2022/03/21 10:48:22;;;;;;;7.50;5.57;;;;;;;7.03;31.25;98660.69;6214199;23;20254;-86
2022/03/21 10:50:53;;;;;;;9.20;5.70;;;;;;;7.16;30.83;98682.94;6164745;23;20177;-88
2022/03/21 10:53:33;;;;;;;8.93;6.40;;;;;;;7.19;31.50;98649.44;6242369;23;20859;-84
2022/03/21 10:56:07;;;;;;;5.60;4.83;;;;;;;6.99;30.39;98677.88;6192710;23;20499;-86
2022/03/21 10:58:48;;;;;;;7.07;5.10;;;;;;;6.67;30.32;98570.78;6194624;23;20267;-83
2022/03/21 11:01:29;;;;;;;6.87;5.13;;;;;;;7.32;30.60;98651.03;6192883;23;20207;-86
2022/03/21 11:04:00;;;;;;;6.97;4.33;;;;;;;7.33;30.20;98666.53;6212607;23;20177;-85
2022/03/21 11:06:28;;;;;;;8.20;4.07;;;;;;;6.51;30.79;98599.19;6188064;23;20276;-86
2022/03/21 11:08:57;;;;;;;8.83;5.77;;;;;;;7.01;30.31;98618.63;6188352;23;20176;-82
2022/03/21 11:11:26;;;;;;;6.53;4.77;;;;;;;6.86;29.91;98568.06;6213126;23;20176;-86
2022/03/21 11:13:54;;;;;;;8.07;5.73;;;;;;;7.09;31.87;98622.88;6213342;23;20189;-88
2022/03/21 11:16:24;;;;;;;10.00;6.10;;;;;;;6.94;31.28;98596.38;6212827;23;20262;-89
2022/03/21 11:18:57;;;;;;;8.27;5.97;;;;;;;7.22;30.67;98605.59;6214753;23;20248;-91
2022/03/21 11:21:28;;;;;;;9.33;6.10;;;;;;;7.48;30.91;98603.66;6244361;22;20250;-90
2022/03/21 11:23:56;;;;;;;9.23;5.17;;;;;;;7.62;30.86;98637.06;6243480;22;20176;-85
2022/03/21 11:26:40;;;;;;;9.20;4.87;;;;;;;7.25;30.66;98596.13;6218393;22;20215;-86
2022/03/21 11:29:30;;;;;;;9.13;6.30;;;;;;;7.62;30.85;98661.13;6243763;22;20184;-88
2022/03/21 11:32:03;;;;;;;6.17;4.77;;;;;;;7.66;30.90;98651.66;6242631;22;20180;-86
2022/03/21 11:34:50;;;;;;;9.37;5.53;;;;;;;7.05;31.98;98581.69;6244268;22;20192;-86
2022/03/21 11:37:25;;;;;;;8.17;5.67;;;;;;;7.75;30.86;98641.28;6195913;22;20600;-85
2022/03/21 11:40:30;;;;;;;7.13;5.77;;;;;;;7.94;30.96;98643.66;6222712;22;20196;-85
2022/03/21 11:43:17;;;;;;;9.43;6.77;;;;;;;7.94;30.78;98641.06;6245623;22;20203;-86
2022/03/21 11:45:47;;;;;;;9.63;6.23;;;;;;;7.87;31.27;98549.13;6271265;22;20230;-83
2022/03/21 11:48:17;;;;;;;21.33;6.20;;;;;;;8.42;30.95;98628.53;6217958;22;20176;-86
2022/03/21 11:50:50;;;;;;;7.43;5.93;;;;;;;7.53;30.50;98608.78;6270134;22;20184;-80
2022/03/21 11:53:27;;;;;;;8.23;5.50;;;;;;;7.31;30.88;98624.44;6213922;22;20165;-82
2022/03/21 11:55:55;;;;;;;12.93;6.43;;;;;;;7.26;31.83;98550.59;6217629;22;20168;-87
2022/03/21 11:58:40;;;;;;;10.00;6.13;;;;;;;7.93;31.57;98631.59;6273820;22;20172;-84
2022/03/21 12:01:28;;;;;;;9.87;6.60;;;;;;;7.65;30.91;98609.53;6252480;22;20496;-82
2022/03/21 12:04:25;;;;;;;9.50;6.60;;;;;;;7.80;31.78;98622.28;6279111;22;20200;-85
2022/03/21 12:07:19;;;;;;;9.50;6.80;;;;;;;7.68;32.83;98635.31;6249317;22;20251;-88
2022/03/21 12:09:50;;;;;;;10.70;6.83;;;;;;;7.44;32.14;98553.00;6275686;22;20222;-88
2022/03/21 12:12:19;;;;;;;11.77;6.10;;;;;;;7.32;31.92;98511.91;6251132;22;20232;-83